createdAt,value
2022-09-10T00:01:32.579Z,19.66
2022-09-10T00:04:02.220Z,19.63
2022-09-10T00:06:35.444Z,19.64
2022-09-10T00:09:03.881Z,19.61
2022-09-10T00:11:32.940Z,19.60
2022-09-10T00:14:02.470Z,19.55
2022-09-10T00:16:32.195Z,19.60
2022-09-10T00:19:01.695Z,19.59
2022-09-10T00:21:32.189Z,19.58
2022-09-10T00:24:00.871Z,19.55
2022-09-10T00:26:31.487Z,19.57
2022-09-10T00:29:00.819Z,19.57
2022-09-10T00:31:32.098Z,19.59
2022-09-10T00:34:02.184Z,19.56
2022-09-10T00:36:34.757Z,19.58
2022-09-10T00:39:05.349Z,19.56
2022-09-10T00:41:34.686Z,19.56
2022-09-10T00:44:05.600Z,19.56
2022-09-10T00:46:43.287Z,19.57
2022-09-10T00:49:15.850Z,19.58
2022-09-10T00:51:47.854Z,19.57
2022-09-10T00:54:18.939Z,19.52
2022-09-10T00:56:48.845Z,19.58
2022-09-10T00:59:21.280Z,19.60
2022-09-10T01:01:50.969Z,19.62
2022-09-10T01:04:19.030Z,19.61
2022-09-10T01:06:54.616Z,19.66
2022-09-10T01:09:24.910Z,19.65
2022-09-10T01:12:11.514Z,19.67
2022-09-10T01:15:09.250Z,19.69
2022-09-10T01:17:52.830Z,19.71
2022-09-10T01:20:35.075Z,19.72
2022-09-10T01:23:32.077Z,19.71
2022-09-10T01:26:11.924Z,19.72
2022-09-10T01:28:46.271Z,19.71
2022-09-10T01:31:22.906Z,19.70
2022-09-10T01:33:59.386Z,19.70
2022-09-10T01:36:33.460Z,19.72
2022-09-10T01:39:02.368Z,19.71
2022-09-10T01:41:30.240Z,19.71
2022-09-10T01:43:59.579Z,19.72
2022-09-10T01:46:42.162Z,19.73
2022-09-10T01:49:28.908Z,19.73
2022-09-10T01:52:13.729Z,19.75
2022-09-10T01:54:56.474Z,19.74
2022-09-10T01:57:35.880Z,19.73
2022-09-10T02:00:09.811Z,19.69
2022-09-10T02:02:43.200Z,19.67
2022-09-10T02:05:12.618Z,19.66
2022-09-10T02:07:41.389Z,19.65
2022-09-10T02:10:10.867Z,19.65
2022-09-10T02:12:40.037Z,19.65
2022-09-10T02:15:11.598Z,19.65
2022-09-10T02:17:40.622Z,19.63
2022-09-10T02:20:14.053Z,19.66
2022-09-10T02:22:45.849Z,19.65
2022-09-10T02:25:14.076Z,19.63
2022-09-10T02:27:43.514Z,19.65
2022-09-10T02:30:13.798Z,19.66
2022-09-10T02:32:42.016Z,19.66
2022-09-10T02:35:10.345Z,19.64
2022-09-10T02:37:38.557Z,19.63
2022-09-10T02:40:07.356Z,19.65
2022-09-10T02:42:35.487Z,19.67
2022-09-10T02:45:03.242Z,19.67
2022-09-10T02:47:32.850Z,19.67
2022-09-10T02:50:02.005Z,19.69
2022-09-10T02:52:30.723Z,19.71
2022-09-10T02:54:58.470Z,19.72
2022-09-10T02:57:27.165Z,19.71
2022-09-10T02:59:56.760Z,19.64
2022-09-10T03:02:25.657Z,19.73
2022-09-10T03:04:55.216Z,19.73
2022-09-10T03:07:22.942Z,19.74
2022-09-10T03:09:51.065Z,19.74
2022-09-10T03:12:18.803Z,19.74
2022-09-10T03:14:47.791Z,19.75
2022-09-10T03:17:15.619Z,19.75
2022-09-10T03:19:43.881Z,19.71
2022-09-10T03:22:12.971Z,19.71
2022-09-10T03:24:40.685Z,19.72
2022-09-10T03:27:08.958Z,19.72
2022-09-10T03:29:36.757Z,19.71
2022-09-10T03:32:04.981Z,19.70
2022-09-10T03:34:32.717Z,19.70
2022-09-10T03:37:01.119Z,19.70
2022-09-10T03:39:30.211Z,19.71
2022-09-10T03:41:58.888Z,19.67
2022-09-10T03:44:26.637Z,19.70
2022-09-10T03:46:54.705Z,19.71
2022-09-10T03:49:22.883Z,19.72
2022-09-10T03:51:51.213Z,19.72
2022-09-10T03:54:19.284Z,19.71
2022-09-10T03:56:48.415Z,19.71
2022-09-10T03:59:17.667Z,19.72
2022-09-10T04:01:47.279Z,19.72
2022-09-10T04:04:15.690Z,19.72
2022-09-10T04:06:44.519Z,19.72
2022-09-10T04:09:12.777Z,19.72
2022-09-10T04:11:40.675Z,19.71
2022-09-10T04:14:10.617Z,19.70
2022-09-10T04:16:38.382Z,19.69
2022-09-10T04:19:06.085Z,19.69
2022-09-10T04:21:34.234Z,19.67
2022-09-10T04:24:02.031Z,19.70
2022-09-10T04:26:30.237Z,19.70
2022-09-10T04:28:57.953Z,19.70
2022-09-10T04:31:27.567Z,19.70
2022-09-10T04:33:55.402Z,19.71
2022-09-10T04:36:23.587Z,19.71
2022-09-10T04:38:51.374Z,19.73
2022-09-10T04:41:20.029Z,19.75
2022-09-10T04:43:47.852Z,19.74
2022-09-10T04:46:15.994Z,19.74
2022-09-10T04:48:45.103Z,19.76
2022-09-10T04:51:16.461Z,19.78
2022-09-10T04:53:45.226Z,19.77
2022-09-10T04:56:13.106Z,19.76
2022-09-10T04:58:41.831Z,19.78
2022-09-10T05:01:10.315Z,19.79
2022-09-10T05:03:38.169Z,19.80
2022-09-10T05:06:08.233Z,19.79
2022-09-10T05:08:36.567Z,19.80
2022-09-10T05:11:04.564Z,19.80
2022-09-10T05:13:32.962Z,19.80
2022-09-10T05:16:02.129Z,19.74
2022-09-10T05:18:30.181Z,19.80
2022-09-10T05:20:57.973Z,19.80
2022-09-10T05:23:27.713Z,19.81
2022-09-10T05:25:56.734Z,19.82
2022-09-10T05:28:25.217Z,19.80
2022-09-10T05:30:53.007Z,19.82
2022-09-10T05:33:21.425Z,19.79
2022-09-10T05:35:52.144Z,19.78
2022-09-10T05:38:21.027Z,19.76
2022-09-10T05:40:50.945Z,19.74
2022-09-10T05:43:19.234Z,19.71
2022-09-10T05:45:47.823Z,19.73
2022-09-10T05:48:15.568Z,19.72
2022-09-10T05:50:45.915Z,19.72
2022-09-10T05:53:14.657Z,19.72
2022-09-10T05:55:43.858Z,19.67
2022-09-10T05:58:14.490Z,19.73
2022-09-10T06:00:44.600Z,19.74
2022-09-10T06:03:12.788Z,19.74
2022-09-10T06:05:41.038Z,19.73
2022-09-10T06:08:09.352Z,19.75
2022-09-10T06:10:37.285Z,19.74
2022-09-10T06:13:06.400Z,19.78
2022-09-10T06:15:36.080Z,19.76
2022-09-10T06:18:03.902Z,19.73
2022-09-10T06:20:32.576Z,19.74
2022-09-10T06:23:01.209Z,19.74
2022-09-10T06:25:28.939Z,19.75
2022-09-10T06:27:57.247Z,19.76
2022-09-10T06:30:25.190Z,19.77
2022-09-10T06:32:54.399Z,19.79
2022-09-10T06:35:23.022Z,19.78
2022-09-10T06:37:51.190Z,19.79
2022-09-10T06:40:19.601Z,19.81
2022-09-10T06:42:47.810Z,19.82
2022-09-10T06:45:16.215Z,19.81
2022-09-10T06:48:36.738Z,19.81
2022-09-10T06:50:33.671Z,19.81
2022-09-10T06:53:01.768Z,19.81
2022-09-10T06:55:29.586Z,19.81
2022-09-10T06:58:00.553Z,19.80
2022-09-10T07:00:28.481Z,19.82
2022-09-10T07:02:56.679Z,19.83
2022-09-10T07:05:24.952Z,19.82
2022-09-10T07:07:55.387Z,19.85
2022-09-10T07:10:23.671Z,19.83
2022-09-10T07:12:51.618Z,19.87
2022-09-10T07:15:19.751Z,19.86
2022-09-10T07:17:47.454Z,19.87
2022-09-10T07:20:15.585Z,19.88
2022-09-10T07:22:43.732Z,19.90
2022-09-10T07:25:13.930Z,19.92
2022-09-10T07:27:41.646Z,19.95
2022-09-10T07:30:10.434Z,19.96
2022-09-10T07:32:38.876Z,19.97
2022-09-10T07:35:07.545Z,19.98
2022-09-10T07:37:35.663Z,20.00
2022-09-10T07:40:04.751Z,19.99
2022-09-10T07:42:34.989Z,20.00
2022-09-10T07:45:02.834Z,20.02
2022-09-10T07:47:30.992Z,20.03
2022-09-10T07:49:58.744Z,20.04
2022-09-10T07:52:26.906Z,20.10
2022-09-10T07:54:54.666Z,20.08
2022-09-10T07:57:22.869Z,20.11
2022-09-10T07:59:52.008Z,20.14
2022-09-10T08:02:20.793Z,20.14
2022-09-10T08:04:48.693Z,20.15
2022-09-10T08:07:17.768Z,20.17
2022-09-10T08:09:45.546Z,20.17
2022-09-10T08:12:13.344Z,20.21
2022-09-10T08:14:42.879Z,20.24
2022-09-10T08:17:12.020Z,20.26
2022-09-10T08:19:40.601Z,20.27
2022-09-10T08:22:13.323Z,20.29
2022-09-10T08:24:41.881Z,20.30
2022-09-10T08:27:11.533Z,20.29
2022-09-10T08:29:40.108Z,20.32
2022-09-10T08:32:07.846Z,20.31
2022-09-10T08:34:37.447Z,20.34
2022-09-10T08:37:05.658Z,20.30
2022-09-10T08:39:33.501Z,20.33
2022-09-10T08:42:05.471Z,20.34
2022-09-10T08:44:38.422Z,20.35
2022-09-10T08:47:21.442Z,20.38
2022-09-10T08:49:53.863Z,20.40
2022-09-10T08:52:31.088Z,20.42
2022-09-10T08:55:06.635Z,20.48
2022-09-10T08:57:40.393Z,20.51
2022-09-10T09:00:13.071Z,20.56
2022-09-10T09:02:49.837Z,20.61
2022-09-10T09:05:22.084Z,20.64
2022-09-10T09:07:50.485Z,20.69
2022-09-10T09:10:31.793Z,20.77
2022-09-10T09:13:19.608Z,20.82
2022-09-10T09:15:55.089Z,20.87
2022-09-10T09:18:32.253Z,20.91
2022-09-10T09:21:09.674Z,20.97
2022-09-10T09:24:09.313Z,21.01
2022-09-10T09:26:36.970Z,21.02
2022-09-10T09:29:08.853Z,21.04
2022-09-10T09:31:42.761Z,21.06
2022-09-10T09:34:19.200Z,21.05
2022-09-10T09:36:51.500Z,21.10
2022-09-10T09:39:25.764Z,21.15
2022-09-10T09:42:05.222Z,21.20
2022-09-10T09:44:39.492Z,21.24
2022-09-10T09:47:09.105Z,21.29
2022-09-10T09:49:36.934Z,21.31
2022-09-10T09:52:18.633Z,21.30
2022-09-10T09:57:43.048Z,21.37
2022-09-10T10:00:36.230Z,21.43
2022-09-10T10:03:19.427Z,21.49
2022-09-10T10:05:49.282Z,21.52
2022-09-10T10:08:31.352Z,21.57
2022-09-10T10:10:59.727Z,21.64
2022-09-10T10:13:37.783Z,21.76
2022-09-10T10:16:17.298Z,21.83
2022-09-10T10:18:46.309Z,21.87
2022-09-10T10:21:21.168Z,21.94
2022-09-10T10:23:50.895Z,21.98
2022-09-10T10:26:31.094Z,22.01
2022-09-10T10:29:01.696Z,22.04
2022-09-10T10:31:41.892Z,22.09
2022-09-10T10:34:35.998Z,22.11
2022-09-10T10:37:10.543Z,22.16
2022-09-10T10:40:05.384Z,22.20
2022-09-10T10:42:36.890Z,22.28
2022-09-10T10:45:31.693Z,22.36
2022-09-10T10:48:10.037Z,22.43
2022-09-10T10:50:52.873Z,22.48
2022-09-10T10:53:37.850Z,22.55
2022-09-10T10:56:15.126Z,22.60
2022-09-10T10:58:57.053Z,22.65
2022-09-10T11:01:27.856Z,22.71
2022-09-10T11:04:03.384Z,22.80
2022-09-10T11:06:39.160Z,22.86
2022-09-10T11:09:13.818Z,22.90
2022-09-10T11:11:52.366Z,22.97
2022-09-10T11:16:58.784Z,23.11
2022-09-10T11:19:35.774Z,23.21
2022-09-10T11:22:12.455Z,23.31
2022-09-10T11:24:45.998Z,23.38
2022-09-10T11:27:21.274Z,23.46
2022-09-10T11:29:53.025Z,23.47
2022-09-10T11:32:28.854Z,23.54
2022-09-10T11:35:04.970Z,23.56
2022-09-10T11:37:51.478Z,23.52
2022-09-10T11:40:27.014Z,23.52
2022-09-10T11:43:01.241Z,23.55
2022-09-10T11:45:39.210Z,23.59
2022-09-10T11:48:17.990Z,23.59
2022-09-10T11:50:50.719Z,23.63
2022-09-10T11:53:21.934Z,23.65
2022-09-10T11:56:19.982Z,23.66
2022-09-10T11:59:03.040Z,23.64
2022-09-10T12:02:02.852Z,23.65
2022-09-10T12:04:47.512Z,23.64
2022-09-10T12:07:26.810Z,23.62
2022-09-10T12:10:13.508Z,23.61
2022-09-10T12:12:44.347Z,23.56
2022-09-10T12:15:21.392Z,23.52
2022-09-10T12:17:54.667Z,23.46
2022-09-10T12:20:30.146Z,23.46
2022-09-10T12:22:59.036Z,23.36
2022-09-10T12:25:34.179Z,23.31
2022-09-10T12:28:06.839Z,23.21
2022-09-10T12:31:04.240Z,23.11
2022-09-10T12:34:07.808Z,23.09
2022-09-10T12:37:10.456Z,23.09
2022-09-10T12:39:38.461Z,23.09
2022-09-10T12:42:25.810Z,23.09
2022-09-10T12:44:54.051Z,23.11
2022-09-10T12:47:47.011Z,23.09
2022-09-10T12:50:23.242Z,23.13
2022-09-10T12:53:18.898Z,23.12
2022-09-10T12:55:59.666Z,23.12
2022-09-10T12:58:41.311Z,23.15
2022-09-10T13:01:19.048Z,23.15
2022-09-10T13:03:56.336Z,23.16
2022-09-10T13:06:36.316Z,23.18
2022-09-10T13:09:17.585Z,23.17
2022-09-10T13:11:50.721Z,23.18
2022-09-10T13:14:23.277Z,23.14
2022-09-10T13:16:51.408Z,23.12
2022-09-10T13:19:54.730Z,23.11
2022-09-10T13:22:58.012Z,23.08
2022-09-10T13:25:35.181Z,23.03
2022-09-10T13:28:03.548Z,23.03
2022-09-10T13:30:32.544Z,23.01
2022-09-10T13:33:07.349Z,22.98
2022-09-10T13:36:06.818Z,22.92
2022-09-10T13:39:02.208Z,22.86
2022-09-10T13:42:03.233Z,22.82
2022-09-10T13:44:54.500Z,22.77
2022-09-10T13:47:28.672Z,22.72
2022-09-10T13:50:02.513Z,22.70
2022-09-10T13:52:36.225Z,22.67
2022-09-10T13:55:08.582Z,22.68
2022-09-10T13:57:41.134Z,22.71
2022-09-10T14:00:20.021Z,22.68
2022-09-10T14:02:50.656Z,22.70
2022-09-10T14:05:30.140Z,22.72
2022-09-10T14:08:02.800Z,22.73
2022-09-10T14:10:31.260Z,22.71
2022-09-10T14:12:59.946Z,22.72
2022-09-10T14:15:34.249Z,22.65
2022-09-10T14:18:02.366Z,22.65
2022-09-10T14:20:32.838Z,22.65
2022-09-10T14:23:04.256Z,22.65
2022-09-10T14:25:34.704Z,22.64
2022-09-10T14:28:25.748Z,22.65
2022-09-10T14:31:19.305Z,22.64
2022-09-10T14:33:47.702Z,22.64
2022-09-10T14:36:17.933Z,22.63
2022-09-10T14:38:55.017Z,22.62
2022-09-10T14:41:25.154Z,22.56
2022-09-10T14:44:31.585Z,22.53
2022-09-10T14:47:00.955Z,22.51
2022-09-10T14:49:30.973Z,22.53
2022-09-10T14:51:59.634Z,22.51
2022-09-10T14:54:29.670Z,22.53
2022-09-10T14:56:58.538Z,22.54
2022-09-10T14:59:31.445Z,22.49
2022-09-10T15:02:01.197Z,22.55
2022-09-10T15:04:31.057Z,22.55
2022-09-10T15:06:59.833Z,22.56
2022-09-10T15:09:30.344Z,22.56
2022-09-10T15:12:02.232Z,22.54
2022-09-10T15:14:32.356Z,22.52
2022-09-10T15:17:00.551Z,22.55
2022-09-10T15:19:28.323Z,22.54
2022-09-10T15:21:56.724Z,22.55
2022-09-10T15:24:25.216Z,22.57
2022-09-10T15:26:56.590Z,22.57
2022-09-10T15:29:26.154Z,22.53
2022-09-10T15:31:54.907Z,22.55
2022-09-10T15:34:22.591Z,22.58
2022-09-10T15:36:50.884Z,22.57
2022-09-10T15:39:18.659Z,22.56
2022-09-10T15:41:46.727Z,22.56
2022-09-10T15:44:18.315Z,22.56
2022-09-10T15:46:47.550Z,22.56
2022-09-10T15:49:15.309Z,22.55
2022-09-10T15:51:43.065Z,22.53
2022-09-10T15:54:12.408Z,22.55
2022-09-10T15:56:41.263Z,22.50
2022-09-10T15:59:10.244Z,22.53
2022-09-10T16:01:40.008Z,22.57
2022-09-10T16:04:08.055Z,22.57
2022-09-10T16:06:38.203Z,22.58
2022-09-10T16:09:09.493Z,22.60
2022-09-10T16:11:39.580Z,22.55
2022-09-10T16:14:08.947Z,22.57
2022-09-10T16:16:37.776Z,22.60
2022-09-10T16:19:07.462Z,22.58
2022-09-10T16:21:38.578Z,22.55
2022-09-10T16:24:08.064Z,22.59
2022-09-10T16:26:37.803Z,22.60
2022-09-10T16:29:09.253Z,22.60
2022-09-10T16:31:39.145Z,22.58
2022-09-10T16:34:12.994Z,22.60
2022-09-10T16:36:40.786Z,22.57
2022-09-10T16:39:13.341Z,22.56
2022-09-10T16:41:42.052Z,22.54
2022-09-10T16:44:11.501Z,22.55
2022-09-10T16:46:39.413Z,22.56
2022-09-10T16:49:12.888Z,22.56
2022-09-10T16:51:42.116Z,22.55
2022-09-10T16:54:11.809Z,22.52
2022-09-10T16:56:42.286Z,22.52
2022-09-10T16:59:15.283Z,22.50
2022-09-10T17:01:44.937Z,22.50
2022-09-10T17:04:20.501Z,22.51
2022-09-10T17:06:51.175Z,22.50
2022-09-10T17:09:19.440Z,22.49
2022-09-10T17:11:47.179Z,22.48
2022-09-10T17:14:14.883Z,22.49
2022-09-10T17:16:44.036Z,22.49
2022-09-10T17:19:14.557Z,22.50
2022-09-10T17:21:47.293Z,22.51
2022-09-10T17:24:15.723Z,22.51
2022-09-10T17:26:44.092Z,22.51
2022-09-10T17:29:14.708Z,22.49
2022-09-10T17:31:43.651Z,22.49
2022-09-10T17:34:13.362Z,22.48
2022-09-10T17:36:44.191Z,22.47
2022-09-10T17:39:12.534Z,22.42
2022-09-10T17:41:40.641Z,22.46
2022-09-10T17:44:08.992Z,22.40
2022-09-10T17:46:37.591Z,22.41
2022-09-10T17:49:06.254Z,22.41
2022-09-10T17:51:37.789Z,22.41
2022-09-10T17:54:08.330Z,22.39
2022-09-10T17:56:38.323Z,22.38
2022-09-10T17:59:07.031Z,22.36
2022-09-10T18:01:38.192Z,22.35
2022-09-10T18:04:06.282Z,22.35
2022-09-10T18:06:36.429Z,22.34
2022-09-10T18:09:06.469Z,22.30
2022-09-10T18:11:36.556Z,22.30
2022-09-10T18:14:05.014Z,22.29
2022-09-10T18:16:34.223Z,22.29
2022-09-10T18:19:04.603Z,22.28
2022-09-10T18:21:34.693Z,22.26
2022-09-10T18:24:05.165Z,22.26
2022-09-10T18:26:36.941Z,22.25
2022-09-10T18:29:06.524Z,22.20
2022-09-10T18:31:37.452Z,22.21
2022-09-10T18:34:06.366Z,22.19
2022-09-10T18:36:35.402Z,22.18
2022-09-10T18:39:04.378Z,22.15
2022-09-10T18:41:36.455Z,22.16
2022-09-10T18:44:07.174Z,22.14
2022-09-10T18:46:36.885Z,22.14
2022-09-10T18:49:05.693Z,22.12
2022-09-10T18:51:33.414Z,22.10
2022-09-10T18:54:04.483Z,22.08
2022-09-10T18:56:35.065Z,22.06
2022-09-10T18:59:07.483Z,22.05
2022-09-10T19:01:38.241Z,21.98
2022-09-10T19:04:07.339Z,22.01
2022-09-10T19:06:38.900Z,22.00
2022-09-10T19:09:09.621Z,21.99
2022-09-10T19:11:40.685Z,21.93
2022-09-10T19:14:19.646Z,21.96
2022-09-10T19:16:48.906Z,21.96
2022-09-10T19:19:19.864Z,21.95
2022-09-10T19:21:48.960Z,21.95
2022-09-10T19:24:19.362Z,21.94
2022-09-10T19:26:55.090Z,21.95
2022-09-10T19:29:23.425Z,21.95
2022-09-10T19:31:52.964Z,21.95
2022-09-10T19:34:22.859Z,21.95
2022-09-10T19:36:50.644Z,21.96
2022-09-10T19:39:19.268Z,21.94
2022-09-10T19:41:48.007Z,21.95
2022-09-10T19:44:18.765Z,21.94
2022-09-10T19:46:46.709Z,21.87
2022-09-10T19:49:14.423Z,21.92
2022-09-10T19:51:43.490Z,21.91
2022-09-10T19:54:12.683Z,21.90
2022-09-10T19:56:42.483Z,21.88
2022-09-10T19:59:11.007Z,21.88
2022-09-10T20:01:42.681Z,21.87
2022-09-10T20:04:12.611Z,21.87
2022-09-10T20:06:41.866Z,21.87
2022-09-10T20:09:10.909Z,21.84
2022-09-10T20:11:39.524Z,21.87
2022-09-10T20:14:10.039Z,21.86
2022-09-10T20:16:39.160Z,21.86
2022-09-10T20:19:08.797Z,21.87
2022-09-10T20:21:37.807Z,21.87
2022-09-10T20:24:07.816Z,21.88
2022-09-10T20:26:38.552Z,21.88
2022-09-10T20:29:08.338Z,21.88
2022-09-10T20:31:41.508Z,21.77
2022-09-10T20:34:14.225Z,21.87
2022-09-10T20:36:43.196Z,21.87
2022-09-10T20:39:13.604Z,21.85
2022-09-10T20:41:42.405Z,21.88
2022-09-10T20:44:13.607Z,21.87
2022-09-10T20:46:42.220Z,21.87
2022-09-10T20:49:13.621Z,21.86
2022-09-10T20:51:42.627Z,21.84
2022-09-10T20:54:13.595Z,21.81
2022-09-10T20:56:42.616Z,21.77
2022-09-10T20:59:12.090Z,21.75
2022-09-10T21:01:40.282Z,21.72
2022-09-10T21:04:08.676Z,21.68
2022-09-10T21:06:37.976Z,21.66
2022-09-10T21:09:06.174Z,21.65
2022-09-10T21:11:35.950Z,21.64
2022-09-10T21:14:06.586Z,21.55
2022-09-10T21:16:37.074Z,21.61
2022-09-10T21:19:07.789Z,21.61
2022-09-10T21:21:39.539Z,21.59
2022-09-10T21:24:09.060Z,21.59
2022-09-10T21:26:39.484Z,21.59
2022-09-10T21:29:10.635Z,21.58
2022-09-10T21:31:39.669Z,21.56
2022-09-10T21:34:07.822Z,21.53
2022-09-10T21:36:38.547Z,21.53
2022-09-10T21:39:08.330Z,21.52
2022-09-10T21:41:37.679Z,21.50
2022-09-10T21:44:09.036Z,21.47
2022-09-10T21:46:37.168Z,21.44
2022-09-10T21:49:05.263Z,21.40
2022-09-10T21:51:33.421Z,21.38
2022-09-10T21:54:03.007Z,21.37
2022-09-10T21:56:30.717Z,21.34
2022-09-10T21:59:01.129Z,21.27
2022-09-10T22:01:30.670Z,21.30
2022-09-10T22:04:01.056Z,21.29
2022-09-10T22:06:30.629Z,21.26
2022-09-10T22:09:00.635Z,21.23
2022-09-10T22:11:32.932Z,21.26
2022-09-10T22:14:03.012Z,21.24
2022-09-10T22:16:32.215Z,21.20
2022-09-10T22:19:03.029Z,21.19
2022-09-10T22:21:31.198Z,21.17
2022-09-10T22:23:59.679Z,21.15
2022-09-10T22:26:29.706Z,21.14
2022-09-10T22:29:00.419Z,21.13
2022-09-10T22:31:31.235Z,21.09
2022-09-10T22:34:00.907Z,21.08
2022-09-10T22:36:31.460Z,21.07
2022-09-10T22:39:01.433Z,21.05
2022-09-10T22:41:34.064Z,21.05
2022-09-10T22:44:02.842Z,21.01
2022-09-10T22:46:31.360Z,20.98
2022-09-10T22:48:59.973Z,20.97
2022-09-10T22:51:29.878Z,20.96
2022-09-10T22:53:59.609Z,20.95
2022-09-10T22:56:28.151Z,20.94
2022-09-10T22:58:58.957Z,20.93
2022-09-10T23:01:29.550Z,20.90
2022-09-10T23:03:58.149Z,20.87
2022-09-10T23:06:29.070Z,20.87
2022-09-10T23:08:59.304Z,20.86
2022-09-10T23:11:29.261Z,20.83
2022-09-10T23:14:01.424Z,20.83
2022-09-10T23:16:33.454Z,20.81
2022-09-10T23:19:03.847Z,20.79
2022-09-10T23:21:33.634Z,20.77
2022-09-10T23:24:03.091Z,20.74
2022-09-10T23:26:31.502Z,20.73
2022-09-10T23:29:03.730Z,20.71
2022-09-10T23:31:33.906Z,20.68
2022-09-10T23:34:04.134Z,20.65
2022-09-10T23:36:34.530Z,20.61
2022-09-10T23:39:05.032Z,20.60
2022-09-10T23:41:33.594Z,20.57
2022-09-10T23:44:03.123Z,20.57
2022-09-10T23:46:31.662Z,20.56
2022-09-10T23:49:00.323Z,20.55
2022-09-10T23:51:29.477Z,20.50
2022-09-10T23:53:57.204Z,20.53
2022-09-10T23:56:27.457Z,20.49
2022-09-10T23:58:55.655Z,20.51
